メインページ
METAR-TAF:

METAR-TAF

空港 :

ワルシャワ・ショパン空港

ワルシャワ, ポーランド

緯度: 52-10N, 経度: 020-58E, 海抜: 106m

現時点の気象観測

当レポートは33分前の11:00(UTC)に作成
西の風 9kt、西/南西から北西の間で変化する
気温 9°C
湿度 87%
気圧 1025 hPa
視程10km以上
高度1000ftの千切れ雲あり

METAR: EPWA 141100Z 28009KT 250V310 9999 BKN010 09/07 Q1025 NOSIG

時間: 12:33 (11:33 UTC)

予報

当レポートは1時間33分前の10:00(UTC)に作成
予報は14日の 10時(UTC)から 15日の 09時(UTC)まで有効
西の風 14kt
視程10km以上
高度1400ftの千切れ雲あり
14日の 10時(UTC)から 14日の 16時(UTC)まで一時的に
西/北西の風 15kt、最大25ktの突風を伴う
高度900ftの千切れ雲あり
高度1500ftの千切れ雲あり, 積乱雲.
弱いにわか雨
確率 30% :
15日の 00時(UTC)から 15日の 07時(UTC)まで一時的に
視程: 4500m
高度1000ftの千切れ雲あり
15日の 04時(UTC)から 15日の 07時(UTC)まで徐々に
北/北西の風 4kt

TAF: EPWA 141000Z 1410/1509 27014KT 9999 BKN014 TEMPO 1410/1416 29015G25KT -SHRA BKN009 BKN015CB PROB30 TEMPO 1500/1507 4500 BR BKN010 BECMG 1504/1507 34004KT

4,000以上の空港の気象観測と天気予報(METAR報とTAF報)

利用可能な観測所は地図上に黄色い丸と赤い丸で示す。

丸の上にカーソルを重ねると観測所名を参照できる。

次にクリックすると気象観測と天気予報を参照できる。

マップの切り替え:黒色「×」印の緑ボタンをクリックして拡大、「-」印の緑ボタンをクリックして縮小、緑色の三角印をクリックして隣りの地図に切り替え


METAR-TAF: